createdAt,value
2022-11-09T00:00:05.748Z,30.50
2022-11-09T00:02:52.472Z,31.60
2022-11-09T00:05:19.318Z,32.40
2022-11-09T00:07:46.175Z,30.90
2022-11-09T00:10:13.310Z,34.60
2022-11-09T00:12:40.195Z,30.40
2022-11-09T00:15:08.332Z,30.80
2022-11-09T00:17:35.275Z,31.90
2022-11-09T00:20:02.359Z,34.70
2022-11-09T00:22:29.195Z,34.50
2022-11-09T00:24:56.113Z,33.30
2022-11-09T00:27:22.970Z,32.50
2022-11-09T00:29:50.078Z,31.70
2022-11-09T00:32:18.461Z,31.20
2022-11-09T00:34:45.652Z,36.40
2022-11-09T00:37:12.525Z,31.50
2022-11-09T00:39:39.402Z,33.10
2022-11-09T00:42:07.443Z,34.50
2022-11-09T00:44:34.312Z,34.30
2022-11-09T00:47:01.198Z,35.10
2022-11-09T00:49:28.020Z,33.50
2022-11-09T00:51:55.074Z,31.20
2022-11-09T00:54:22.908Z,34.40
2022-11-09T00:56:49.733Z,34.50
2022-11-09T00:59:16.986Z,29.80
2022-11-09T01:01:43.867Z,34.00
2022-11-09T01:04:10.863Z,32.90
2022-11-09T01:06:37.976Z,32.20
2022-11-09T01:09:05.071Z,31.90
2022-11-09T01:11:31.885Z,33.50
2022-11-09T01:14:01.232Z,33.10
2022-11-09T01:16:29.046Z,31.00
2022-11-09T01:18:58.622Z,34.20
2022-11-09T01:21:26.380Z,31.00
2022-11-09T01:23:53.562Z,29.90
2022-11-09T01:26:20.511Z,34.20
2022-11-09T01:28:48.019Z,30.10
2022-11-09T01:31:17.889Z,30.50
2022-11-09T01:33:45.544Z,31.50
2022-11-09T01:36:14.517Z,29.80
2022-11-09T01:38:42.181Z,31.60
2022-11-09T01:41:12.586Z,31.40
2022-11-09T01:43:39.422Z,32.20
2022-11-09T01:46:16.310Z,29.60
2022-11-09T01:48:49.758Z,29.00
2022-11-09T01:51:25.627Z,30.40
2022-11-09T01:53:59.215Z,29.10
2022-11-09T01:56:27.460Z,30.40
2022-11-09T01:58:57.092Z,33.40
2022-11-09T02:01:24.899Z,34.70
2022-11-09T02:03:56.665Z,29.90
2022-11-09T02:06:26.861Z,31.30
2022-11-09T02:08:58.505Z,30.00
2022-11-09T02:11:29.339Z,34.50
2022-11-09T02:14:01.870Z,32.00
2022-11-09T02:16:30.076Z,34.80
2022-11-09T02:19:00.799Z,36.70
2022-11-09T02:21:29.873Z,32.30
2022-11-09T02:23:57.145Z,36.50
2022-11-09T02:26:29.979Z,32.10
2022-11-09T02:28:59.243Z,32.20
2022-11-09T02:31:32.284Z,36.20
2022-11-09T02:34:04.994Z,34.10
2022-11-09T02:36:32.233Z,33.40
2022-11-09T02:39:00.935Z,37.20
2022-11-09T02:41:29.829Z,32.00
2022-11-09T02:43:57.627Z,34.50
2022-11-09T02:46:31.901Z,32.10
2022-11-09T02:48:58.926Z,34.80
2022-11-09T02:51:25.801Z,31.80
2022-11-09T02:53:53.545Z,34.40
2022-11-09T02:56:21.681Z,32.90
2022-11-09T02:58:48.683Z,31.20
2022-11-09T03:01:16.947Z,29.60
2022-11-09T03:03:44.614Z,34.50
2022-11-09T03:06:12.815Z,34.90
2022-11-09T03:08:40.882Z,33.60
2022-11-09T03:11:08.110Z,33.00
2022-11-09T03:13:35.446Z,33.60
2022-11-09T03:16:07.103Z,34.70
2022-11-09T03:18:36.955Z,30.80
2022-11-09T03:21:08.041Z,34.50
2022-11-09T03:23:35.359Z,37.40
2022-11-09T03:26:02.883Z,34.50
2022-11-09T03:28:29.833Z,36.30
2022-11-09T03:30:57.119Z,35.00
2022-11-09T03:33:24.400Z,32.80
2022-11-09T03:35:51.461Z,38.00
2022-11-09T03:38:18.630Z,34.70
2022-11-09T03:40:46.088Z,33.70
2022-11-09T03:43:12.949Z,35.10
2022-11-09T03:45:40.671Z,37.60
2022-11-09T03:48:08.196Z,35.70
2022-11-09T03:50:40.284Z,37.90
2022-11-09T03:53:07.551Z,35.20
2022-11-09T03:55:34.572Z,42.10
2022-11-09T03:58:01.619Z,37.30
2022-11-09T04:00:28.564Z,38.20
2022-11-09T04:02:55.872Z,37.30
2022-11-09T04:05:22.826Z,37.60
2022-11-09T04:07:54.739Z,37.30
2022-11-09T04:10:22.834Z,36.60
2022-11-09T04:12:49.929Z,38.40
2022-11-09T04:15:17.545Z,36.80
2022-11-09T04:17:44.853Z,34.40
2022-11-09T04:20:14.023Z,35.10
2022-11-09T04:22:40.927Z,37.10
2022-11-09T04:25:09.067Z,37.90
2022-11-09T04:27:35.867Z,36.10
2022-11-09T04:30:02.740Z,36.30
2022-11-09T04:32:29.574Z,35.40
2022-11-09T04:34:56.400Z,37.40
2022-11-09T04:37:23.292Z,35.10
2022-11-09T04:39:50.124Z,35.50
2022-11-09T04:42:17.007Z,40.60
2022-11-09T04:44:44.016Z,41.40
2022-11-09T04:47:11.012Z,41.90
2022-11-09T04:49:37.899Z,35.40
2022-11-09T04:52:04.860Z,35.80
2022-11-09T04:54:31.849Z,35.30
2022-11-09T04:56:58.735Z,36.30
2022-11-09T04:59:25.645Z,37.90
2022-11-09T05:01:52.433Z,35.10
2022-11-09T05:04:19.419Z,33.30
2022-11-09T05:06:46.534Z,38.50
2022-11-09T05:09:13.552Z,38.90
2022-11-09T05:11:40.515Z,41.50
2022-11-09T05:14:07.386Z,36.80
2022-11-09T05:16:34.776Z,41.30
2022-11-09T05:19:01.669Z,39.30
2022-11-09T05:21:28.793Z,40.70
2022-11-09T05:24:03.020Z,36.40
2022-11-09T05:26:31.568Z,35.50
2022-11-09T05:28:59.177Z,38.50
2022-11-09T05:31:26.396Z,37.90
2022-11-09T05:33:54.300Z,38.50
2022-11-09T05:36:21.768Z,40.30
2022-11-09T05:38:48.848Z,38.50
2022-11-09T05:41:16.145Z,35.90
2022-11-09T05:43:44.681Z,46.20
2022-11-09T05:46:11.737Z,40.40
2022-11-09T05:48:38.686Z,38.70
2022-11-09T05:51:07.456Z,42.40
2022-11-09T05:53:34.976Z,35.90
2022-11-09T05:56:06.620Z,35.80
2022-11-09T05:58:36.556Z,39.00
2022-11-09T06:01:03.450Z,34.90
2022-11-09T06:03:30.328Z,42.00
2022-11-09T06:06:06.790Z,38.40
2022-11-09T06:08:35.614Z,40.60
2022-11-09T06:11:04.857Z,40.90
2022-11-09T06:13:32.340Z,37.20
2022-11-09T06:16:00.702Z,36.20
2022-11-09T06:18:29.188Z,38.20
2022-11-09T06:20:58.269Z,39.80
2022-11-09T06:23:25.864Z,39.40
2022-11-09T06:25:53.587Z,41.30
2022-11-09T06:28:20.649Z,41.90
2022-11-09T06:30:47.876Z,40.80
2022-11-09T06:33:14.804Z,46.60
2022-11-09T06:35:42.223Z,43.40
2022-11-09T06:38:19.277Z,37.20
2022-11-09T06:40:46.514Z,36.40
2022-11-09T06:43:13.416Z,36.40
2022-11-09T06:45:40.329Z,41.10
2022-11-09T06:48:07.769Z,41.40
2022-11-09T06:50:35.372Z,44.40
2022-11-09T06:53:04.698Z,41.30
2022-11-09T06:55:33.271Z,40.20
2022-11-09T06:58:00.688Z,42.10
2022-11-09T07:00:29.171Z,38.60
2022-11-09T07:02:56.254Z,41.10
2022-11-09T07:05:23.437Z,43.60
2022-11-09T07:07:50.722Z,45.10
2022-11-09T07:10:18.122Z,43.90
2022-11-09T07:12:45.017Z,40.30
2022-11-09T07:15:13.880Z,40.10
2022-11-09T07:17:41.375Z,40.80
2022-11-09T07:20:10.910Z,36.20
2022-11-09T07:22:40.358Z,38.30
2022-11-09T07:25:09.789Z,43.20
2022-11-09T07:27:37.206Z,42.00
2022-11-09T07:30:05.066Z,42.00
2022-11-09T07:33:07.407Z,43.00
2022-11-09T07:35:20.757Z,37.20
2022-11-09T07:37:47.916Z,45.70
2022-11-09T07:40:16.153Z,37.10
2022-11-09T07:42:43.057Z,42.40
2022-11-09T07:45:11.225Z,41.00
2022-11-09T07:47:38.061Z,41.80
2022-11-09T07:50:05.257Z,43.40
2022-11-09T07:52:32.268Z,40.00
2022-11-09T07:54:59.156Z,40.10
2022-11-09T07:57:26.123Z,38.50
2022-11-09T07:59:53.669Z,40.00
2022-11-09T08:02:23.661Z,39.50
2022-11-09T08:04:51.043Z,39.40
2022-11-09T08:07:17.922Z,41.70
2022-11-09T08:09:45.266Z,38.40
2022-11-09T08:12:12.366Z,42.50
2022-11-09T08:14:39.194Z,41.60
2022-11-09T08:17:06.185Z,45.00
2022-11-09T08:19:33.166Z,38.50
2022-11-09T08:22:00.756Z,38.20
2022-11-09T08:24:27.734Z,42.00
2022-11-09T08:26:55.974Z,41.20
2022-11-09T08:29:23.106Z,39.90
2022-11-09T08:31:52.066Z,42.60
2022-11-09T08:34:19.572Z,41.40
2022-11-09T08:36:46.452Z,37.90
2022-11-09T08:39:15.778Z,39.90
2022-11-09T08:41:44.948Z,40.30
2022-11-09T08:44:11.825Z,36.60
2022-11-09T08:46:41.396Z,38.70
2022-11-09T08:49:08.664Z,35.90
2022-11-09T08:51:35.975Z,40.00
2022-11-09T08:54:02.872Z,39.90
2022-11-09T08:56:30.058Z,41.60
2022-11-09T08:58:57.006Z,41.40
2022-11-09T09:01:25.461Z,43.30
2022-11-09T09:03:52.905Z,39.60
2022-11-09T09:06:20.132Z,43.20
2022-11-09T09:08:47.146Z,39.20
2022-11-09T09:11:14.189Z,35.80
2022-11-09T09:13:43.519Z,34.20
2022-11-09T09:16:16.286Z,38.40
2022-11-09T09:18:43.458Z,36.40
2022-11-09T09:21:13.474Z,36.20
2022-11-09T09:23:40.688Z,39.60
2022-11-09T09:26:07.998Z,34.60
2022-11-09T09:28:34.993Z,36.60
2022-11-09T09:31:02.810Z,36.40
2022-11-09T09:33:30.120Z,37.00
2022-11-09T09:35:59.740Z,37.90
2022-11-09T09:38:27.219Z,37.20
2022-11-09T09:40:59.497Z,33.60
2022-11-09T09:43:32.184Z,34.80
2022-11-09T09:46:01.934Z,32.60
2022-11-09T09:48:36.829Z,35.30
2022-11-09T09:51:10.250Z,37.50
2022-11-09T09:53:44.473Z,35.00
2022-11-09T09:56:18.130Z,34.30
2022-11-09T09:58:50.584Z,37.60
2022-11-09T10:01:20.208Z,35.30
2022-11-09T10:03:47.221Z,33.30
2022-11-09T10:06:31.819Z,35.10
2022-11-09T10:09:07.444Z,36.10
2022-11-09T10:11:44.615Z,38.80
2022-11-09T10:14:31.735Z,37.50
2022-11-09T10:17:08.766Z,38.20
2022-11-09T10:19:49.480Z,38.40
2022-11-09T10:22:23.578Z,38.30
2022-11-09T10:25:20.725Z,38.70
2022-11-09T10:27:52.952Z,39.00
2022-11-09T10:30:22.562Z,40.40
2022-11-09T10:32:52.592Z,36.80
2022-11-09T10:35:22.857Z,34.90
2022-11-09T10:37:52.376Z,38.50
2022-11-09T10:40:25.214Z,38.20
2022-11-09T10:43:14.019Z,37.30
2022-11-09T10:46:05.950Z,39.10
2022-11-09T10:48:52.136Z,38.00
2022-11-09T10:51:46.496Z,39.90
2022-11-09T10:54:35.201Z,36.40
2022-11-09T10:57:22.509Z,36.80
2022-11-09T11:03:10.467Z,38.40
2022-11-09T11:06:01.417Z,35.90
2022-11-09T11:08:48.849Z,35.30
2022-11-09T11:11:36.951Z,37.60
2022-11-09T11:14:30.308Z,38.40
2022-11-09T11:17:26.025Z,39.80
2022-11-09T11:20:38.683Z,43.00
2022-11-09T11:23:26.320Z,37.30
2022-11-09T11:26:35.659Z,37.80
2022-11-09T11:29:33.857Z,40.20
2022-11-09T11:32:21.866Z,37.20
2022-11-09T11:35:14.023Z,39.00
2022-11-09T11:38:12.965Z,35.00
2022-11-09T11:41:11.481Z,41.30
2022-11-09T11:44:04.418Z,36.60
2022-11-09T11:47:10.008Z,34.60
2022-11-09T11:50:22.490Z,40.30
2022-11-09T11:53:18.985Z,36.10
2022-11-09T11:56:27.647Z,37.50
2022-11-09T11:59:38.892Z,33.30
2022-11-09T12:03:04.579Z,37.30
2022-11-09T12:06:12.672Z,32.40
2022-11-09T12:09:15.480Z,34.00
2022-11-09T12:12:14.328Z,35.20
2022-11-09T12:15:28.490Z,33.50
2022-11-09T12:18:31.217Z,34.80
2022-11-09T12:21:20.469Z,33.80
2022-11-09T12:24:16.909Z,34.40
2022-11-09T12:27:36.581Z,38.10
2022-11-09T12:30:25.081Z,35.30
2022-11-09T12:33:15.925Z,33.50
2022-11-09T12:36:08.413Z,32.00
2022-11-09T12:39:03.599Z,32.00
2022-11-09T12:41:51.023Z,36.30
2022-11-09T12:44:40.013Z,31.60
2022-11-09T12:47:31.607Z,38.60
2022-11-09T12:50:20.862Z,34.20
2022-11-09T12:53:09.191Z,32.00
2022-11-09T12:55:59.453Z,33.90
2022-11-09T12:58:45.291Z,32.50
2022-11-09T13:01:53.219Z,33.20
2022-11-09T13:04:38.960Z,32.70
2022-11-09T13:07:43.620Z,33.10
2022-11-09T13:10:35.450Z,32.60
2022-11-09T13:13:26.498Z,30.10
2022-11-09T13:16:34.866Z,32.80
2022-11-09T13:19:54.384Z,32.60
2022-11-09T13:23:01.768Z,35.80
2022-11-09T13:25:54.740Z,36.30
2022-11-09T13:29:08.148Z,34.20
2022-11-09T13:32:28.702Z,33.50
2022-11-09T13:35:44.876Z,39.60
2022-11-09T13:38:33.303Z,32.10
2022-11-09T13:41:44.861Z,30.70
2022-11-09T13:44:34.465Z,35.10
2022-11-09T13:47:35.236Z,36.40
2022-11-09T13:50:24.192Z,34.40
2022-11-09T13:53:31.512Z,37.20
2022-11-09T13:56:27.055Z,25.60
2022-11-09T13:59:18.351Z,36.70
2022-11-09T14:02:04.907Z,34.50
2022-11-09T14:04:50.832Z,39.50
2022-11-09T14:07:36.941Z,34.50
2022-11-09T14:10:30.848Z,37.00
2022-11-09T14:13:32.166Z,34.90
2022-11-09T14:16:27.625Z,36.50
2022-11-09T14:19:27.771Z,37.70
2022-11-09T14:22:19.757Z,37.20
2022-11-09T14:25:14.732Z,36.90
2022-11-09T14:28:00.476Z,35.50
2022-11-09T14:30:47.873Z,35.10
2022-11-09T14:36:20.707Z,32.20
2022-11-09T14:39:18.539Z,35.50
2022-11-09T14:42:06.642Z,37.70
2022-11-09T14:44:58.414Z,36.80
2022-11-09T14:47:49.213Z,38.60
2022-11-09T14:50:38.075Z,34.80
2022-11-09T14:53:27.451Z,37.30
2022-11-09T14:56:16.301Z,37.00
2022-11-09T14:59:02.852Z,38.80
2022-11-09T15:02:02.257Z,37.50
2022-11-09T15:05:03.214Z,35.70
2022-11-09T15:07:49.462Z,39.40
2022-11-09T15:10:35.319Z,38.00
2022-11-09T15:13:29.211Z,37.70
2022-11-09T15:16:25.138Z,38.40
2022-11-09T15:19:23.534Z,40.70
2022-11-09T15:22:48.378Z,39.50
2022-11-09T15:25:37.433Z,33.70
2022-11-09T15:28:26.122Z,40.00
2022-11-09T15:31:16.735Z,38.80
2022-11-09T15:34:02.333Z,41.00
2022-11-09T15:36:56.188Z,36.70
2022-11-09T15:39:41.755Z,37.30
2022-11-09T15:42:27.958Z,38.90
2022-11-09T15:45:17.299Z,39.70
2022-11-09T15:48:04.161Z,41.50
2022-11-09T15:50:49.639Z,41.60
2022-11-09T15:53:35.519Z,42.40
2022-11-09T15:56:23.535Z,50.00
2022-11-09T15:59:14.145Z,43.50
2022-11-09T16:01:59.540Z,48.30
2022-11-09T16:04:45.757Z,44.10
2022-11-09T16:07:31.342Z,44.30
2022-11-09T16:10:17.889Z,44.90
2022-11-09T16:13:03.721Z,42.70
2022-11-09T16:15:49.380Z,43.20
2022-11-09T16:18:37.801Z,45.40
2022-11-09T16:21:23.904Z,46.70
2022-11-09T16:24:13.741Z,45.90
2022-11-09T16:26:59.970Z,43.50
2022-11-09T16:29:45.913Z,45.80
2022-11-09T16:32:31.879Z,46.40
2022-11-09T16:35:27.233Z,43.60
2022-11-09T16:38:13.260Z,44.90
2022-11-09T16:41:00.825Z,44.50
2022-11-09T16:43:48.587Z,45.80
2022-11-09T16:46:34.894Z,50.80
2022-11-09T16:49:20.490Z,49.00
2022-11-09T16:52:07.143Z,49.70
2022-11-09T16:54:53.255Z,50.60
2022-11-09T16:57:39.690Z,48.00
2022-11-09T17:00:33.743Z,50.50
2022-11-09T17:03:31.937Z,46.80
2022-11-09T17:06:17.549Z,47.20
2022-11-09T17:09:03.305Z,48.80
2022-11-09T17:11:48.850Z,51.60
2022-11-09T17:14:34.123Z,51.30
2022-11-09T17:17:22.618Z,49.00
2022-11-09T17:20:11.136Z,51.90
2022-11-09T17:23:03.466Z,48.00
2022-11-09T17:26:04.205Z,48.60
2022-11-09T17:29:00.037Z,54.80
2022-11-09T17:31:49.877Z,48.60
2022-11-09T17:34:40.408Z,48.00
2022-11-09T17:37:26.383Z,51.60
2022-11-09T17:40:22.208Z,49.20
2022-11-09T17:43:09.882Z,45.70
2022-11-09T17:45:56.928Z,48.50
2022-11-09T17:48:44.887Z,47.60
2022-11-09T17:51:31.393Z,54.00
2022-11-09T17:54:17.183Z,49.40
2022-11-09T17:57:02.980Z,48.90
2022-11-09T17:59:48.959Z,53.20
2022-11-09T18:02:35.244Z,53.10
2022-11-09T18:05:20.985Z,48.30
2022-11-09T18:08:17.270Z,45.60
2022-11-09T18:11:02.912Z,48.90
2022-11-09T18:13:49.079Z,45.40
2022-11-09T18:16:34.626Z,51.70
2022-11-09T18:19:23.227Z,47.40
2022-11-09T18:22:12.850Z,49.30
2022-11-09T18:25:01.941Z,53.20
2022-11-09T18:27:49.246Z,48.10
2022-11-09T18:30:55.230Z,50.40
2022-11-09T18:33:41.161Z,50.40
2022-11-09T18:36:28.025Z,54.70
2022-11-09T18:39:13.893Z,50.00
2022-11-09T18:42:01.968Z,44.20
2022-11-09T18:44:47.788Z,50.80
2022-11-09T18:47:33.736Z,51.50
2022-11-09T18:50:21.908Z,48.90
2022-11-09T18:53:07.557Z,46.90
2022-11-09T18:55:53.457Z,45.40
2022-11-09T18:58:39.533Z,50.50
2022-11-09T19:01:27.280Z,47.10
2022-11-09T19:04:16.786Z,55.00
2022-11-09T19:09:46.960Z,46.30
2022-11-09T19:12:32.641Z,50.30
2022-11-09T19:15:20.461Z,52.20
2022-11-09T19:20:50.529Z,45.80
2022-11-09T19:23:36.182Z,51.00
2022-11-09T19:26:22.341Z,51.50
2022-11-09T19:29:08.923Z,48.90
2022-11-09T19:31:55.069Z,54.70
2022-11-09T19:34:42.813Z,57.00
2022-11-09T19:37:29.001Z,56.50
2022-11-09T19:40:15.695Z,53.10
2022-11-09T19:43:01.334Z,53.30
2022-11-09T19:45:46.835Z,55.80
2022-11-09T19:48:34.853Z,50.90
2022-11-09T19:51:20.901Z,50.40
2022-11-09T19:54:07.528Z,51.30
2022-11-09T19:56:52.915Z,53.90
2022-11-09T19:59:38.268Z,53.20
2022-11-09T20:02:26.557Z,51.80
2022-11-09T20:05:12.468Z,52.60
2022-11-09T20:07:58.170Z,56.90
2022-11-09T20:10:43.472Z,55.80
2022-11-09T20:13:29.154Z,51.20
2022-11-09T20:16:15.167Z,49.70
2022-11-09T20:19:01.251Z,53.70
2022-11-09T20:21:47.116Z,50.80
2022-11-09T20:24:32.537Z,50.30
2022-11-09T20:27:18.129Z,55.00
2022-11-09T20:30:04.273Z,52.80
2022-11-09T20:32:52.873Z,57.00
2022-11-09T20:35:41.812Z,60.80
2022-11-09T20:38:32.524Z,60.00
2022-11-09T20:41:22.909Z,56.80
2022-11-09T20:44:11.171Z,54.50
2022-11-09T20:46:56.797Z,55.80
2022-11-09T20:49:42.369Z,59.00
2022-11-09T20:52:27.893Z,56.00
2022-11-09T20:55:15.059Z,51.30
2022-11-09T21:00:45.039Z,58.60
2022-11-09T21:03:30.996Z,62.80
2022-11-09T21:06:17.392Z,65.60
2022-11-09T21:09:05.559Z,63.80
2022-11-09T21:12:08.874Z,58.80
2022-11-09T21:14:55.087Z,64.80
2022-11-09T21:17:40.895Z,59.70
2022-11-09T21:20:26.295Z,62.20
2022-11-09T21:23:30.852Z,60.60
2022-11-09T21:26:34.189Z,63.80
2022-11-09T21:29:38.499Z,59.20
2022-11-09T21:32:25.115Z,55.60
2022-11-09T21:35:11.543Z,62.00
2022-11-09T21:37:58.934Z,63.60
2022-11-09T21:40:44.411Z,59.10
2022-11-09T21:43:30.187Z,60.30
2022-11-09T21:46:16.256Z,62.60
2022-11-09T21:49:01.821Z,59.80
2022-11-09T21:51:49.376Z,62.80
2022-11-09T21:54:35.526Z,58.70
2022-11-09T21:57:21.340Z,64.30
2022-11-09T22:00:09.395Z,60.60
2022-11-09T22:02:54.976Z,54.10
2022-11-09T22:05:41.811Z,55.60
2022-11-09T22:08:27.313Z,57.80
2022-11-09T22:11:14.889Z,52.30
2022-11-09T22:14:29.881Z,55.00
2022-11-09T22:17:15.922Z,58.50
2022-11-09T22:20:19.358Z,54.70
2022-11-09T22:23:09.083Z,53.50
2022-11-09T22:25:55.103Z,57.50
2022-11-09T22:28:40.909Z,57.40
2022-11-09T22:31:27.205Z,59.60
2022-11-09T22:34:12.672Z,58.40
2022-11-09T22:36:58.475Z,57.40
2022-11-09T22:39:47.281Z,55.90
2022-11-09T22:42:34.306Z,56.70
2022-11-09T22:45:19.670Z,54.40
2022-11-09T22:48:05.170Z,55.90
2022-11-09T22:50:50.765Z,51.30
2022-11-09T22:53:36.829Z,54.70
2022-11-09T22:56:22.774Z,59.10
2022-11-09T22:59:09.020Z,58.20
2022-11-09T23:01:54.797Z,55.50
2022-11-09T23:04:40.766Z,55.50
2022-11-09T23:07:26.471Z,52.80
2022-11-09T23:10:12.843Z,58.20
2022-11-09T23:12:59.167Z,52.60
2022-11-09T23:15:44.717Z,59.10
2022-11-09T23:18:48.960Z,53.20
2022-11-09T23:21:36.346Z,55.00
2022-11-09T23:24:35.905Z,57.40
2022-11-09T23:27:21.251Z,59.20
2022-11-09T23:30:07.559Z,53.30
2022-11-09T23:32:53.272Z,57.90
2022-11-09T23:35:38.889Z,51.90
2022-11-09T23:38:25.219Z,54.10
2022-11-09T23:41:13.297Z,55.30
2022-11-09T23:43:59.258Z,56.10
2022-11-09T23:46:44.861Z,54.20
2022-11-09T23:49:30.446Z,53.90
2022-11-09T23:52:16.039Z,56.20
2022-11-09T23:55:01.459Z,52.90
2022-11-09T23:57:47.004Z,48.60
